createdAt,value
2023-01-25T00:00:53.839Z,11.17
2023-01-25T00:03:21.691Z,12.50
2023-01-25T00:05:49.452Z,11.23
2023-01-25T00:08:17.548Z,11.13
2023-01-25T00:10:45.268Z,12.27
2023-01-25T00:13:13.027Z,10.73
2023-01-25T00:15:40.758Z,11.40
2023-01-25T00:18:09.860Z,11.73
2023-01-25T00:20:37.682Z,11.30
2023-01-25T00:23:05.476Z,11.37
2023-01-25T00:25:33.168Z,11.63
2023-01-25T00:28:00.889Z,11.90
2023-01-25T00:30:28.793Z,11.43
2023-01-25T00:33:04.002Z,11.63
2023-01-25T00:35:33.988Z,10.90
2023-01-25T00:38:03.878Z,12.17
2023-01-25T00:40:31.790Z,13.13
2023-01-25T00:43:00.788Z,11.77
2023-01-25T00:45:28.707Z,11.63
2023-01-25T00:47:57.299Z,11.67
2023-01-25T00:50:25.096Z,11.13
2023-01-25T00:52:54.197Z,12.60
2023-01-25T00:55:21.930Z,12.37
2023-01-25T00:57:49.730Z,12.67
2023-01-25T01:00:18.239Z,12.90
2023-01-25T01:02:46.015Z,12.10
2023-01-25T01:05:13.913Z,11.83
2023-01-25T01:07:41.712Z,12.53
2023-01-25T01:10:11.929Z,11.27
2023-01-25T01:12:39.665Z,12.77
2023-01-25T01:15:09.055Z,12.07
2023-01-25T01:17:36.977Z,12.40
2023-01-25T01:20:05.142Z,12.37
2023-01-25T01:22:32.936Z,13.27
2023-01-25T01:25:00.698Z,12.20
2023-01-25T01:27:29.920Z,11.63
2023-01-25T01:29:57.713Z,12.00
2023-01-25T01:32:25.762Z,12.30
2023-01-25T01:34:53.596Z,12.20
2023-01-25T01:37:21.336Z,11.33
2023-01-25T01:39:49.042Z,11.73
2023-01-25T01:42:16.829Z,11.03
2023-01-25T01:44:48.964Z,10.70
2023-01-25T01:47:21.788Z,11.53
2023-01-25T01:49:54.571Z,12.00
2023-01-25T01:52:29.283Z,11.60
2023-01-25T01:55:00.799Z,10.73
2023-01-25T01:57:34.767Z,12.37
2023-01-25T02:00:08.454Z,12.73
2023-01-25T02:02:36.821Z,11.93
2023-01-25T02:05:08.382Z,11.87
2023-01-25T02:07:38.711Z,12.00
2023-01-25T02:10:08.721Z,12.37
2023-01-25T02:12:37.960Z,11.47
2023-01-25T02:15:08.919Z,12.47
2023-01-25T02:17:39.886Z,12.20
2023-01-25T02:20:17.450Z,10.57
2023-01-25T02:22:51.965Z,11.70
2023-01-25T02:25:21.453Z,12.77
2023-01-25T02:27:54.144Z,11.67
2023-01-25T02:30:22.549Z,12.00
2023-01-25T02:32:50.336Z,11.80
2023-01-25T02:35:23.187Z,11.90
2023-01-25T02:37:51.407Z,12.73
2023-01-25T02:40:20.742Z,12.13
2023-01-25T02:42:48.547Z,13.43
2023-01-25T02:45:20.057Z,12.47
2023-01-25T02:47:48.692Z,13.37
2023-01-25T02:50:17.100Z,13.13
2023-01-25T02:52:44.809Z,12.50
2023-01-25T02:55:12.600Z,12.97
2023-01-25T02:57:41.798Z,12.60
2023-01-25T03:00:10.769Z,11.87
2023-01-25T03:02:38.621Z,11.93
2023-01-25T03:05:07.540Z,11.73
2023-01-25T03:07:35.446Z,13.10
2023-01-25T03:10:03.183Z,13.07
2023-01-25T03:12:30.942Z,14.30
2023-01-25T03:15:00.059Z,12.47
2023-01-25T03:17:27.825Z,13.70
2023-01-25T03:19:55.603Z,12.83
2023-01-25T03:22:23.361Z,14.07
2023-01-25T03:24:51.147Z,12.03
2023-01-25T03:27:19.347Z,11.77
2023-01-25T03:29:47.118Z,11.40
2023-01-25T03:32:16.276Z,12.93
2023-01-25T03:34:44.103Z,12.63
2023-01-25T03:37:12.001Z,11.87
2023-01-25T03:39:39.805Z,13.80
2023-01-25T03:42:08.021Z,11.77
2023-01-25T03:44:35.922Z,12.37
2023-01-25T03:47:03.983Z,12.40
2023-01-25T03:49:33.157Z,12.77
2023-01-25T03:52:00.884Z,12.57
2023-01-25T03:54:28.615Z,12.63
2023-01-25T03:56:56.419Z,12.70
2023-01-25T03:59:24.234Z,11.83
2023-01-25T04:01:52.465Z,13.33
2023-01-25T04:04:20.328Z,13.27
2023-01-25T04:06:49.440Z,12.77
2023-01-25T04:09:17.332Z,12.53
2023-01-25T04:11:45.144Z,11.50
2023-01-25T04:14:13.054Z,12.97
2023-01-25T04:16:41.016Z,12.83
2023-01-25T04:19:08.928Z,12.67
2023-01-25T04:21:36.752Z,13.07
2023-01-25T04:24:06.797Z,12.53
2023-01-25T04:26:34.614Z,13.87
2023-01-25T04:29:02.373Z,13.33
2023-01-25T04:31:30.207Z,13.23
2023-01-25T04:33:58.010Z,13.87
2023-01-25T04:36:25.697Z,13.70
2023-01-25T04:38:53.424Z,13.40
2023-01-25T04:41:26.866Z,13.00
2023-01-25T04:43:54.619Z,12.20
2023-01-25T04:46:22.385Z,13.53
2023-01-25T04:48:50.130Z,14.10
2023-01-25T04:51:17.912Z,13.83
2023-01-25T04:53:45.698Z,13.53
2023-01-25T04:56:13.536Z,13.50
2023-01-25T04:58:42.885Z,13.20
2023-01-25T05:01:10.878Z,13.70
2023-01-25T05:03:38.734Z,14.50
2023-01-25T05:06:06.795Z,14.60
2023-01-25T05:08:34.539Z,13.70
2023-01-25T05:11:02.313Z,13.43
2023-01-25T05:13:30.101Z,13.30
2023-01-25T05:15:59.246Z,14.53
2023-01-25T05:18:33.118Z,14.43
2023-01-25T05:21:27.125Z,14.97
2023-01-25T05:23:55.209Z,13.33
2023-01-25T05:26:40.267Z,14.10
2023-01-25T05:29:08.095Z,14.30
2023-01-25T05:31:37.245Z,13.30
2023-01-25T05:34:04.996Z,15.37
2023-01-25T05:36:32.803Z,13.73
2023-01-25T05:39:00.597Z,14.93
2023-01-25T05:41:28.416Z,13.60
2023-01-25T05:43:56.231Z,14.57
2023-01-25T05:46:24.116Z,14.10
2023-01-25T05:48:53.210Z,14.57
2023-01-25T05:51:21.044Z,14.30
2023-01-25T05:53:48.851Z,14.70
2023-01-25T05:56:16.660Z,14.07
2023-01-25T05:58:44.672Z,14.43
2023-01-25T06:01:12.739Z,13.17
2023-01-25T06:03:40.645Z,13.83
2023-01-25T06:06:09.854Z,13.67
2023-01-25T06:08:37.657Z,13.40
2023-01-25T06:11:08.872Z,14.43
2023-01-25T06:13:36.796Z,14.60
2023-01-25T06:16:04.783Z,13.83
2023-01-25T06:18:33.862Z,14.83
2023-01-25T06:21:02.928Z,14.47
2023-01-25T06:23:32.547Z,14.37
2023-01-25T06:26:01.272Z,14.07
2023-01-25T06:28:31.767Z,15.13
2023-01-25T06:31:05.550Z,14.30
2023-01-25T06:33:33.796Z,13.00
2023-01-25T06:36:02.679Z,13.30
2023-01-25T06:38:30.444Z,15.10
2023-01-25T06:41:02.260Z,13.10
2023-01-25T06:43:30.742Z,14.97
2023-01-25T06:45:59.657Z,14.53
2023-01-25T06:48:28.126Z,14.10
2023-01-25T06:50:57.244Z,15.17
2023-01-25T06:53:26.518Z,15.03
2023-01-25T06:56:02.437Z,14.37
2023-01-25T06:58:32.485Z,14.07
2023-01-25T07:01:05.212Z,13.20
2023-01-25T07:03:33.600Z,15.10
2023-01-25T07:06:01.900Z,13.93
2023-01-25T07:08:29.947Z,15.50
2023-01-25T07:10:58.780Z,13.97
2023-01-25T07:13:29.549Z,14.80
2023-01-25T07:15:59.264Z,14.27
2023-01-25T07:18:28.062Z,15.23
2023-01-25T07:20:55.897Z,14.07
2023-01-25T07:23:23.732Z,13.90
2023-01-25T07:25:52.155Z,14.53
2023-01-25T07:28:20.074Z,15.50
2023-01-25T07:30:49.542Z,14.57
2023-01-25T07:33:17.303Z,15.23
2023-01-25T07:35:45.164Z,14.20
2023-01-25T07:38:14.587Z,14.40
2023-01-25T07:40:43.010Z,13.90
2023-01-25T07:43:10.802Z,15.57
2023-01-25T07:45:38.639Z,16.03
2023-01-25T07:48:11.795Z,14.13
2023-01-25T07:50:39.705Z,15.40
2023-01-25T07:53:07.533Z,14.10
2023-01-25T07:55:35.849Z,13.43
2023-01-25T07:58:03.687Z,13.60
2023-01-25T08:00:31.464Z,14.20
2023-01-25T08:02:59.359Z,14.37
2023-01-25T08:05:28.645Z,14.60
2023-01-25T08:07:56.447Z,13.73
2023-01-25T08:10:24.199Z,14.00
2023-01-25T08:12:51.966Z,14.93
2023-01-25T08:15:19.714Z,12.60
2023-01-25T08:17:47.504Z,13.10
2023-01-25T08:20:15.541Z,13.03
2023-01-25T08:22:44.791Z,11.97
2023-01-25T08:25:12.578Z,12.43
2023-01-25T08:27:40.417Z,13.97
2023-01-25T08:30:09.692Z,12.30
2023-01-25T08:32:38.248Z,11.77
2023-01-25T08:35:07.570Z,13.20
2023-01-25T08:37:35.760Z,12.50
2023-01-25T08:40:05.767Z,12.27
2023-01-25T08:42:33.530Z,12.40
2023-01-25T08:45:02.700Z,11.87
2023-01-25T08:47:30.694Z,13.20
2023-01-25T08:49:58.608Z,12.57
2023-01-25T08:52:26.395Z,12.27
2023-01-25T08:54:54.141Z,11.73
2023-01-25T08:57:23.256Z,12.83
2023-01-25T08:59:51.067Z,13.13
2023-01-25T09:02:19.311Z,12.53
2023-01-25T09:04:47.154Z,13.13
2023-01-25T09:07:15.092Z,12.83
2023-01-25T09:09:42.841Z,12.57
2023-01-25T09:12:10.893Z,13.77
2023-01-25T09:14:40.811Z,12.57
2023-01-25T09:17:08.526Z,12.87
2023-01-25T09:19:36.275Z,12.97
2023-01-25T09:22:04.454Z,12.73
2023-01-25T09:24:36.984Z,13.70
2023-01-25T09:27:04.990Z,12.33
2023-01-25T09:29:32.728Z,13.90
2023-01-25T09:32:02.021Z,14.30
2023-01-25T09:34:29.861Z,12.33
2023-01-25T09:36:57.656Z,12.13
2023-01-25T09:39:25.602Z,12.53
2023-01-25T09:42:32.794Z,12.63
2023-01-25T09:45:12.675Z,12.00
2023-01-25T09:47:48.887Z,12.17
2023-01-25T09:50:35.183Z,11.77
2023-01-25T09:53:21.920Z,12.47
2023-01-25T09:55:54.239Z,12.10
2023-01-25T09:58:27.488Z,12.20
2023-01-25T10:01:14.461Z,12.70
2023-01-25T10:03:52.065Z,11.80
2023-01-25T10:06:23.662Z,13.90
2023-01-25T10:08:58.771Z,12.67
2023-01-25T10:11:29.018Z,11.40
2023-01-25T10:13:57.626Z,11.80
2023-01-25T10:16:32.829Z,12.97
2023-01-25T10:19:14.570Z,12.60
2023-01-25T10:21:45.338Z,13.37
2023-01-25T10:24:41.043Z,11.80
2023-01-25T10:27:23.055Z,13.07
2023-01-25T10:29:53.807Z,11.63
2023-01-25T10:32:27.255Z,12.30
2023-01-25T10:34:59.182Z,12.67
2023-01-25T10:37:29.321Z,13.80
2023-01-25T10:40:04.264Z,13.97
2023-01-25T10:42:39.149Z,12.43
2023-01-25T10:45:12.858Z,13.53
2023-01-25T10:47:43.816Z,13.00
2023-01-25T10:50:47.149Z,13.40
2023-01-25T10:53:33.916Z,12.37
2023-01-25T10:56:20.503Z,13.37
2023-01-25T10:58:50.079Z,11.70
2023-01-25T11:01:29.932Z,12.87
2023-01-25T11:03:58.218Z,12.90
2023-01-25T11:06:38.581Z,13.80
2023-01-25T11:09:32.912Z,14.80
2023-01-25T11:12:02.070Z,14.80
2023-01-25T11:14:31.685Z,13.97
2023-01-25T11:17:01.037Z,15.03
2023-01-25T11:19:34.303Z,14.33
2023-01-25T11:22:06.000Z,15.40
2023-01-25T11:24:36.056Z,16.40
2023-01-25T11:27:19.050Z,14.67
2023-01-25T11:29:47.930Z,14.60
2023-01-25T11:32:22.601Z,13.67
2023-01-25T11:34:51.257Z,12.87
2023-01-25T11:37:47.260Z,14.17
2023-01-25T11:40:22.380Z,12.53
2023-01-25T11:43:03.805Z,13.27
2023-01-25T11:46:08.712Z,13.80
2023-01-25T11:49:00.526Z,13.30
2023-01-25T11:51:34.653Z,13.67
2023-01-25T11:54:24.790Z,15.53
2023-01-25T11:56:58.989Z,13.67
2023-01-25T11:59:44.226Z,14.50
2023-01-25T12:02:33.234Z,13.57
2023-01-25T12:05:22.191Z,13.57
2023-01-25T12:07:59.967Z,14.20
2023-01-25T12:10:40.819Z,13.57
2023-01-25T12:13:19.584Z,12.70
2023-01-25T12:16:10.171Z,13.47
2023-01-25T12:19:02.086Z,13.93
2023-01-25T12:21:46.995Z,13.73
2023-01-25T12:24:29.443Z,12.10
2023-01-25T12:27:07.473Z,13.70
2023-01-25T12:29:40.067Z,13.47
2023-01-25T12:32:12.765Z,14.53
2023-01-25T12:34:44.315Z,14.10
2023-01-25T12:37:18.560Z,13.67
2023-01-25T12:39:50.612Z,13.57
2023-01-25T12:42:22.584Z,12.13
2023-01-25T12:44:56.847Z,13.10
2023-01-25T12:47:29.223Z,12.67
2023-01-25T12:50:05.926Z,12.60
2023-01-25T12:52:35.989Z,13.00
2023-01-25T12:55:06.367Z,13.77
2023-01-25T12:57:41.063Z,14.03
2023-01-25T13:00:18.845Z,14.83
2023-01-25T13:03:09.229Z,14.13
2023-01-25T13:05:43.081Z,14.13
2023-01-25T13:08:31.671Z,13.80
2023-01-25T13:11:11.169Z,13.33
2023-01-25T13:13:40.333Z,14.47
2023-01-25T13:16:37.570Z,15.63
2023-01-25T13:19:05.611Z,14.20
2023-01-25T13:21:42.052Z,15.27
2023-01-25T13:24:21.848Z,14.30
2023-01-25T13:27:00.601Z,14.00
2023-01-25T13:30:00.574Z,13.40
2023-01-25T13:33:03.518Z,14.00
2023-01-25T13:35:39.928Z,13.63
2023-01-25T13:38:29.391Z,13.03
2023-01-25T13:41:17.012Z,12.37
2023-01-25T13:43:53.557Z,12.80
2023-01-25T13:46:25.736Z,12.47
2023-01-25T13:49:00.812Z,13.47
2023-01-25T13:51:34.202Z,12.57
2023-01-25T13:54:02.107Z,12.80
2023-01-25T13:56:34.009Z,14.40
2023-01-25T13:59:02.083Z,13.47
2023-01-25T14:01:33.491Z,13.20
2023-01-25T14:04:04.189Z,13.90
2023-01-25T14:06:36.137Z,12.90
2023-01-25T14:09:07.760Z,13.00
2023-01-25T14:11:43.973Z,13.57
2023-01-25T14:14:21.182Z,14.03
2023-01-25T14:17:02.453Z,12.80
2023-01-25T14:19:31.365Z,13.23
2023-01-25T14:22:21.864Z,12.33
2023-01-25T14:25:04.099Z,12.63
2023-01-25T14:27:31.999Z,12.17
2023-01-25T14:29:59.832Z,12.73
2023-01-25T14:32:29.278Z,11.90
2023-01-25T14:34:57.399Z,13.00
2023-01-25T14:37:25.197Z,12.77
2023-01-25T14:39:53.339Z,12.47
2023-01-25T14:42:21.432Z,12.20
2023-01-25T14:44:49.713Z,13.33
2023-01-25T14:47:23.053Z,13.67
2023-01-25T14:49:52.153Z,13.10
2023-01-25T14:52:22.640Z,12.47
2023-01-25T14:54:53.654Z,12.73
2023-01-25T14:57:33.710Z,12.63
2023-01-25T15:00:04.033Z,12.10
2023-01-25T15:02:39.602Z,13.37
2023-01-25T15:05:19.686Z,12.60
2023-01-25T15:07:49.542Z,13.57
2023-01-25T15:10:19.993Z,12.83
2023-01-25T15:13:17.893Z,14.40
2023-01-25T15:15:54.511Z,14.03
2023-01-25T15:18:43.135Z,13.93
2023-01-25T15:21:14.020Z,13.63
2023-01-25T15:23:43.145Z,14.17
2023-01-25T15:26:19.166Z,15.27
2023-01-25T15:28:47.715Z,14.23
2023-01-25T15:31:18.823Z,14.37
2023-01-25T15:33:46.759Z,13.97
2023-01-25T15:36:17.656Z,14.60
2023-01-25T15:38:45.895Z,16.63
2023-01-25T15:41:14.657Z,16.70
2023-01-25T15:43:43.166Z,15.73
2023-01-25T15:46:17.822Z,14.43
2023-01-25T15:48:47.395Z,15.83
2023-01-25T15:51:17.039Z,15.73
2023-01-25T15:53:46.786Z,16.23
2023-01-25T15:56:18.565Z,15.53
2023-01-25T15:58:48.991Z,15.87
2023-01-25T16:01:16.944Z,15.83
2023-01-25T16:03:44.819Z,15.23
2023-01-25T16:06:29.627Z,15.97
2023-01-25T16:08:58.823Z,16.93
2023-01-25T16:11:26.841Z,16.33
2023-01-25T16:13:54.733Z,16.37
2023-01-25T16:16:24.905Z,15.90
2023-01-25T16:18:53.064Z,16.30
2023-01-25T16:21:22.159Z,16.07
2023-01-25T16:23:50.019Z,16.90
2023-01-25T16:26:21.605Z,17.00
2023-01-25T16:28:49.374Z,16.80
2023-01-25T16:31:31.255Z,17.13
2023-01-25T16:34:00.645Z,17.33
2023-01-25T16:36:31.441Z,17.13
2023-01-25T16:39:09.693Z,17.10
2023-01-25T16:41:38.137Z,17.53
2023-01-25T16:44:06.140Z,17.67
2023-01-25T16:46:34.301Z,18.63
2023-01-25T16:49:04.333Z,17.80
2023-01-25T16:51:34.347Z,17.73
2023-01-25T16:54:02.339Z,19.27
2023-01-25T16:56:32.038Z,17.63
2023-01-25T16:59:03.689Z,17.97
2023-01-25T17:01:32.144Z,19.07
2023-01-25T17:04:00.329Z,18.93
2023-01-25T17:06:30.417Z,19.43
2023-01-25T17:09:12.575Z,18.87
2023-01-25T17:11:49.716Z,18.70
2023-01-25T17:14:19.875Z,20.50
2023-01-25T17:16:48.409Z,20.47
2023-01-25T17:19:18.335Z,20.53
2023-01-25T17:21:46.669Z,21.17
2023-01-25T17:24:18.146Z,21.47
2023-01-25T17:26:46.036Z,21.40
2023-01-25T17:29:14.102Z,21.50
2023-01-25T17:31:44.167Z,21.20
2023-01-25T17:34:16.006Z,21.47
2023-01-25T17:36:44.676Z,21.10
2023-01-25T17:39:15.356Z,22.03
2023-01-25T17:41:45.165Z,20.70
2023-01-25T17:44:13.273Z,22.67
2023-01-25T17:46:41.579Z,21.40
2023-01-25T17:49:12.749Z,21.87
2023-01-25T17:51:40.625Z,21.23
2023-01-25T17:54:08.582Z,21.37
2023-01-25T17:56:39.227Z,21.00
2023-01-25T17:59:11.453Z,20.83
2023-01-25T18:01:42.529Z,21.73
2023-01-25T18:04:11.110Z,22.40
2023-01-25T18:06:38.938Z,22.47
2023-01-25T18:09:07.441Z,22.60
2023-01-25T18:11:37.907Z,23.03
2023-01-25T18:14:09.321Z,22.50
2023-01-25T18:16:38.774Z,22.93
2023-01-25T18:19:07.167Z,21.33
2023-01-25T18:21:35.886Z,21.77
2023-01-25T18:24:07.287Z,22.63
2023-01-25T18:26:37.941Z,23.37
2023-01-25T18:29:43.601Z,22.53
2023-01-25T18:32:11.408Z,20.00
2023-01-25T18:34:39.266Z,20.83
2023-01-25T18:37:18.821Z,20.03
2023-01-25T18:39:47.201Z,21.27
2023-01-25T18:42:15.393Z,19.63
2023-01-25T18:44:48.240Z,19.93
2023-01-25T18:47:18.509Z,19.40
2023-01-25T18:49:46.412Z,19.83
2023-01-25T18:52:14.275Z,21.23
2023-01-25T18:54:42.159Z,21.57
2023-01-25T18:57:12.051Z,20.13
2023-01-25T18:59:40.164Z,20.93
2023-01-25T19:02:11.997Z,20.23
2023-01-25T19:04:39.734Z,19.67
2023-01-25T19:07:07.823Z,20.37
2023-01-25T19:09:35.626Z,19.50
2023-01-25T19:12:03.360Z,21.53
2023-01-25T19:14:31.138Z,20.53
2023-01-25T19:16:58.986Z,20.00
2023-01-25T19:19:31.950Z,22.83
2023-01-25T19:21:59.754Z,20.37
2023-01-25T19:24:28.650Z,21.37
2023-01-25T19:26:56.471Z,22.67
2023-01-25T19:29:24.242Z,21.13
2023-01-25T19:31:51.931Z,20.20
2023-01-25T19:34:19.825Z,20.83
2023-01-25T19:36:50.088Z,20.03
2023-01-25T19:39:18.994Z,21.20
2023-01-25T19:41:47.121Z,21.07
2023-01-25T19:44:15.518Z,20.17
2023-01-25T19:46:44.213Z,19.93
2023-01-25T19:49:13.243Z,20.60
2023-01-25T19:51:44.416Z,20.23
2023-01-25T19:54:16.786Z,20.20
2023-01-25T19:56:46.449Z,21.60
2023-01-25T19:59:15.991Z,20.33
2023-01-25T20:01:45.188Z,18.33
2023-01-25T20:04:14.215Z,19.77
2023-01-25T20:06:42.558Z,18.30
2023-01-25T20:09:15.794Z,19.60
2023-01-25T20:11:43.885Z,19.57
2023-01-25T20:14:13.200Z,18.47
2023-01-25T20:16:41.015Z,17.57
2023-01-25T20:19:11.587Z,17.53
2023-01-25T20:21:39.766Z,18.67
2023-01-25T20:24:10.164Z,17.20
2023-01-25T20:26:42.939Z,16.67
2023-01-25T20:29:11.944Z,19.07
2023-01-25T20:31:41.600Z,18.07
2023-01-25T20:34:12.669Z,17.57
2023-01-25T20:36:40.654Z,19.03
2023-01-25T20:39:09.159Z,17.70
2023-01-25T20:41:36.881Z,17.93
2023-01-25T20:44:08.555Z,17.70
2023-01-25T20:46:38.776Z,17.70
2023-01-25T20:49:08.485Z,15.97
2023-01-25T20:51:36.333Z,18.13
2023-01-25T20:54:04.333Z,18.20
2023-01-25T20:56:32.727Z,17.53
2023-01-25T20:59:00.473Z,17.53
2023-01-25T21:01:33.865Z,18.33
2023-01-25T21:04:01.629Z,18.30
2023-01-25T21:06:29.566Z,16.17
2023-01-25T21:08:59.147Z,17.83
2023-01-25T21:11:27.116Z,18.07
2023-01-25T21:13:54.997Z,18.70
2023-01-25T21:16:23.426Z,18.40
2023-01-25T21:18:54.516Z,17.50
2023-01-25T21:21:25.870Z,17.53
2023-01-25T21:23:55.088Z,16.77
2023-01-25T21:26:26.533Z,16.37
2023-01-25T21:28:55.793Z,16.33
2023-01-25T21:31:25.089Z,14.93
2023-01-25T21:33:55.231Z,14.80
2023-01-25T21:36:23.849Z,15.23
2023-01-25T21:38:53.803Z,14.77
2023-01-25T21:41:24.409Z,16.03
2023-01-25T21:44:10.793Z,15.43
2023-01-25T21:46:39.172Z,14.83
2023-01-25T21:49:27.384Z,14.33
2023-01-25T21:51:56.508Z,13.47
2023-01-25T21:54:26.463Z,13.90
2023-01-25T21:56:55.970Z,13.53
2023-01-25T21:59:24.651Z,14.50
2023-01-25T22:01:53.515Z,13.00
2023-01-25T22:04:24.142Z,12.63
2023-01-25T22:06:54.371Z,13.67
2023-01-25T22:09:22.830Z,13.00
2023-01-25T22:11:50.960Z,13.30
2023-01-25T22:14:19.811Z,12.50
2023-01-25T22:16:47.588Z,12.27
2023-01-25T22:19:15.453Z,12.70
2023-01-25T22:21:45.386Z,13.13
2023-01-25T22:24:13.591Z,12.07
2023-01-25T22:26:48.453Z,11.60
2023-01-25T22:29:16.260Z,11.03
2023-01-25T22:31:44.129Z,12.10
2023-01-25T22:34:12.211Z,10.57
2023-01-25T22:36:40.028Z,10.77
2023-01-25T22:39:09.185Z,10.47
2023-01-25T22:41:38.467Z,10.80
2023-01-25T22:44:06.615Z,10.63
2023-01-25T22:46:35.154Z,10.73
2023-01-25T22:49:03.593Z,11.23
2023-01-25T22:51:31.676Z,10.83
2023-01-25T22:54:00.564Z,10.77
2023-01-25T22:56:31.866Z,10.83
2023-01-25T22:59:00.984Z,9.70
2023-01-25T23:01:30.853Z,10.70
2023-01-25T23:03:58.867Z,9.23
2023-01-25T23:06:28.422Z,10.00
2023-01-25T23:08:57.403Z,11.10
2023-01-25T23:11:32.051Z,11.43
2023-01-25T23:14:18.829Z,10.80
2023-01-25T23:16:47.013Z,10.17
2023-01-25T23:19:13.801Z,9.30
2023-01-25T23:21:42.301Z,10.57
2023-01-25T23:24:10.807Z,9.90
2023-01-25T23:26:38.968Z,10.27
2023-01-25T23:29:10.548Z,9.37
2023-01-25T23:31:38.462Z,9.87
2023-01-25T23:34:07.814Z,10.10
2023-01-25T23:36:38.679Z,9.60
2023-01-25T23:39:06.892Z,9.57
2023-01-25T23:41:35.213Z,9.47
2023-01-25T23:44:02.907Z,9.20
2023-01-25T23:46:32.030Z,9.40
2023-01-25T23:48:59.763Z,9.13
2023-01-25T23:51:27.498Z,9.17
2023-01-25T23:53:55.869Z,9.07
2023-01-25T23:56:23.699Z,8.90
2023-01-25T23:58:51.502Z,9.77
